Flight Track Log - Related Links

Times and Time Zones

All times are in EDT time to prevent confusion due to time zone crossing. See the N589H flight status page for this flight to view local times or setup timezone preferences in your user account.

Time Position Orientation Groundspeed Altitude Reporting Facility
EDT Latitude Longitude Course Direction KTS MPH feet Rate Location/Type
Wed 11:06:59 26.3642 -80.1356 334° Northwest 139 160 1,200  Level Miami Center
Wed 11:08:01 26.4047 -80.1581 334° Northwest 174 200 2,500 1,839 Climbing Miami Center
Wed 11:09:03 26.4636 -80.1619 357° North 193 222 5,000 2,177 Climbing Miami Center
Wed 11:10:05 26.5133 -80.1711 351° North 186 214 7,000 1,984 Climbing Miami Center
Wed 11:11:07 26.5383 -80.2217 299° West 190 219 9,100 1,984 Climbing Miami Center
Wed 11:12:09 26.5481 -80.2792 281° West 190 219 11,100 1,403 Climbing Miami Center
Wed 11:13:11 26.5861 -80.3333 308° West 243 280 12,000 1,016 Climbing Miami Center
Wed 11:14:13 26.6606 -80.3553 345° North 276 318 13,200 1,355 Climbing Miami Center
Wed 11:15:15 26.7328 -80.3808 342° North 274 315 14,800 1,306 Climbing Miami Center
Wed 11:16:17 26.8100 -80.4100 341° North 267 307 15,900 532 Climbing Miami Center
Wed 11:17:19 26.8864 -80.4364 343° North 295 339 15,900 290 Level Miami Center
Wed 11:18:21 26.9739 -80.4683 342° North 313 360 16,500 823 Climbing Miami Center
Wed 11:19:23 27.0575 -80.4994 342° North 308 354 17,600 1,065 Climbing Miami Center
Wed 11:20:25 27.1350 -80.5281 342° North 295 339 18,700 1,016 Climbing Miami Center
Wed 11:21:27 27.2111 -80.5561 342° North 288 331 19,700 1,016 Climbing Miami Center
Wed 11:22:29 27.2853 -80.5836 342° North 285 328 20,800 1,016 Climbing Miami Center
Wed 11:23:31 27.3614 -80.6114 342° North 285 328 21,800 968 Climbing Miami Center
Wed 11:24:33 27.4383 -80.6400 342° North 286 329 22,800 581 Climbing Miami Center
Wed 11:25:35 27.5358 -80.6756 342° North 310 357 23,000 97 Climbing Miami Center
Wed 11:26:37 27.6244 -80.7086 342° North 336 387 23,000 194 Level Miami Center
Wed 11:27:39 27.7136 -80.7422 342° North 338 389 23,400 435 Climbing Miami Center
Wed 11:28:41 27.8019 -80.7756 342° North 337 388 23,900 484 Climbing Miami Center
Wed 11:29:43 27.8886 -80.8075 342° North 335 386 24,400 581 Climbing Miami Center
Wed 11:30:45 27.9933 -80.8478 341° North 333 383 25,100 581 Climbing Miami Center
Wed 11:31:47 28.0800 -80.8800 342° North 331 381 25,600 532 Climbing Miami Center
Wed 11:32:49 28.1744 -80.9153 342° North 331 381 26,200 532 Climbing Miami Center
Wed 11:33:51 28.2569 -80.9464 342° North 326 375 26,700 532 Climbing Miami Center
Wed 11:34:53 28.3450 -80.9800 341° North 321 369 27,300 484 Climbing Miami Center
Wed 11:35:55 28.4203 -81.0086 342° North 320 368 27,700 532 Climbing Miami Center
Wed 11:36:57 28.5219 -81.0464 342° North 320 368 28,400 587 Climbing Miami Center
Wed 11:37:27 28.5647 -81.0656 339° North 320 368 28,600 533 Climbing Jacksonville Center
Wed 11:38:27 28.6486 -81.0900 346° North 320 368 29,200 550 Climbing Jacksonville Center
Wed 11:39:27 28.7344 -81.1192 343° North 320 368 29,700 500 Climbing Jacksonville Center
Wed 11:40:27 28.8225 -81.1414 348° North 320 368 30,200 550 Climbing Jacksonville Center
Wed 11:41:27 28.9064 -81.1683 344° North 320 368 30,800 550 Climbing Jacksonville Center
Wed 11:42:27 28.9942 -81.1881 349° North 320 368 31,300 550 Climbing Jacksonville Center
Wed 11:43:27 29.0800 -81.2081 348° North 315 362 31,900 550 Climbing Jacksonville Center
Wed 11:44:27 29.1681 -81.2303 348° North 315 362 32,400 500 Climbing Jacksonville Center
Wed 11:45:27 29.2497 -81.2528 346° North 315 362 32,900 250 Climbing Jacksonville Center
Wed 11:46:27 29.3375 -81.2681 351° North 315 362 32,900  Level Jacksonville Center
Wed 11:47:27 29.4278 -81.2903 348° North 315 362 32,900  Level Jacksonville Center
Wed 11:48:27 29.5178 -81.3150 347° North 315 362 32,900  Level Jacksonville Center
Wed 11:49:27 29.6097 -81.3350 349° North 320 368 32,900  Level Jacksonville Center
Wed 11:50:27 29.7042 -81.3600 347° North 325 374 32,900  Level Jacksonville Center
Wed 11:51:27 29.7961 -81.3825 348° North 337 388 32,900  Level Jacksonville Center
Wed 11:52:27 29.8925 -81.4047 349° North 342 394 32,900  Level Jacksonville Center
Wed 11:53:27 29.9889 -81.4272 349° North 342 394 32,900  Level Jacksonville Center
Wed 11:54:27 30.0831 -81.4522 347° North 342 394 32,900  Level Jacksonville Center
Wed 11:55:27 30.1814 -81.4725 350° North 347 399 32,900  Level Jacksonville Center
Wed 11:56:27 30.2778 -81.4975 347° North 352 405 32,900  Level Jacksonville Center
Wed 11:57:27 30.3656 -81.5083 354° North 358 412 32,900  Level Jacksonville Center
Wed 11:58:27 30.4636 -81.4997 North 352 405 32,900  Level Jacksonville Center
Wed 11:59:27 30.5594 -81.4958 North 347 399 32,900  Level Jacksonville Center
Wed 12:00:27 30.6556 -81.4872 North 347 399 32,900  Level Jacksonville Center
Wed 12:01:27 30.7536 -81.4808 North 347 399 32,900  Level Jacksonville Center
Wed 12:02:27 30.8475 -81.4722 North 347 399 32,900  Level Jacksonville Center
Wed 12:03:27 30.9475 -81.4633 North 347 399 32,900  Level Jacksonville Center
Wed 12:04:27 31.0411 -81.4403 12° North 347 399 32,900  Level Jacksonville Center
Wed 12:05:27 31.1283 -81.3953 24° Northeast 336 387 32,900  Level Jacksonville Center
Wed 12:06:27 31.2175 -81.3475 25° Northeast 348 400 32,900  Level Jacksonville Center
Wed 12:07:27 31.3069 -81.3022 23° Northeast 348 400 32,900  Level Jacksonville Center
Wed 12:08:27 31.3961 -81.2569 23° Northeast 348 400 32,900  Level Jacksonville Center
Wed 12:09:27 31.4936 -81.2067 24° Northeast 348 400 32,900  Level Jacksonville Center
Wed 12:10:27 31.5722 -81.1636 25° Northeast 354 407 32,900  Level Jacksonville Center
Wed 12:11:27 31.6697 -81.1156 23° Northeast 349 402 32,900  Level Jacksonville Center
Wed 12:12:27 31.7567 -81.0675 25° Northeast 349 402 32,900  Level Jacksonville Center
Wed 12:13:27 31.8375 -81.0242 24° Northeast 349 402 32,900  Level Jacksonville Center
Wed 12:14:27 31.9347 -80.9708 25° Northeast 349 402 32,900  Level Jacksonville Center
Wed 12:15:27 32.0239 -80.9250 24° Northeast 349 402 32,900  Level Jacksonville Center
Wed 12:16:27 32.1150 -80.8789 23° Northeast 349 402 32,900  Level Jacksonville Center
Wed 12:17:27 32.2019 -80.8303 25° Northeast 349 402 32,900  Level Jacksonville Center
Wed 12:18:27 32.2828 -80.7867 25° Northeast 354 407 32,900  Level Jacksonville Center
Wed 12:19:27 32.3819 -80.7375 23° Northeast 354 407 32,900  Level Jacksonville Center
Wed 12:20:27 32.4708 -80.6864 26° Northeast 354 407 32,900  Level Jacksonville Center
Wed 12:21:27 32.5619 -80.6397 23° Northeast 354 407 32,900  Level Jacksonville Center
Wed 12:22:27 32.6464 -80.5808 30° Northeast 354 407 32,900  Level Jacksonville Center
Wed 12:23:27 32.7331 -80.5244 29° Northeast 354 407 32,900  Level Jacksonville Center
Wed 12:24:27 32.8217 -80.4650 29° Northeast 349 402 32,900  Level Jacksonville Center
Wed 12:25:27 32.9083 -80.4083 29° Northeast 349 402 32,900  Level Jacksonville Center
Wed 12:26:27 32.9908 -80.3542 29° Northeast 344 396 32,900  Level Jacksonville Center
Wed 12:27:27 33.0711 -80.2997 30° Northeast 344 396 32,900  Level Jacksonville Center
Wed 12:28:27 33.1594 -80.2400 30° Northeast 349 402 32,900  Level Jacksonville Center
Wed 12:29:27 33.2542 -80.1728 31° Northeast 371 427 32,900  Level Jacksonville Center
Wed 12:30:27 33.3425 -80.1128 30° Northeast 378 435 32,900  Level Jacksonville Center
Wed 12:31:27 33.4308 -80.0528 30° Northeast 373 429 32,900  Level Jacksonville Center
Wed 12:32:27 33.5192 -79.9903 31° Northeast 368 423 32,900  Level Jacksonville Center
Wed 12:33:27 33.6075 -79.9300 30° Northeast 368 423 32,900  Level Jacksonville Center
Wed 12:34:27 33.6978 -79.8669 30° Northeast 368 423 32,900  Level Jacksonville Center
Wed 12:35:27 33.7883 -79.8064 29° Northeast 368 423 32,900  Level Jacksonville Center
Wed 12:36:27 33.8764 -79.7458 30° Northeast 368 423 32,900  Level Jacksonville Center
Wed 12:37:27 33.9644 -79.6800 32° Northeast 368 423 32,900  Level Jacksonville Center
Wed 12:38:27 34.0569 -79.6217 28° Northeast 368 423 32,900  Level Jacksonville Center
Wed 12:40:21 34.2161 -79.5069 31° Northeast 342 394 32,900  Level Washington Center
Wed 12:41:22 34.3083 -79.4361 32° Northeast 358 412 32,900  Level Washington Center
Wed 12:42:22 34.3978 -79.3747 30° Northeast 363 418 32,900  Level Washington Center
Wed 12:43:20 34.4875 -79.3108 30° Northeast 363 418 32,900  Level Washington Center
Wed 12:44:20 34.5792 -79.2469 30° Northeast 363 418 32,900  Level Washington Center
Wed 12:45:21 34.6686 -79.1853 30° Northeast 369 425 32,900  Level Washington Center
Wed 12:46:22 34.7603 -79.1211 30° Northeast 369 425 32,900  Level Washington Center
Wed 12:47:20 34.8497 -79.0567 31° Northeast 369 425 32,900  Level Washington Center
Wed 12:48:20 34.9436 -78.9897 30° Northeast 369 425 32,900  Level Washington Center
Wed 12:49:20 35.0350 -78.9278 29° Northeast 369 425 32,900  Level Washington Center
Wed 12:50:22 35.1264 -78.8628 30° Northeast 369 425 32,900  Level Washington Center
Wed 12:51:22 35.2181 -78.8006 29° Northeast 369 425 32,900  Level Washington Center
Wed 12:52:19 35.3114 -78.7356 30° Northeast 369 425 32,900  Level Washington Center
Wed 12:53:21 35.4136 -78.6631 30° Northeast 379 436 32,900  Level Washington Center
Wed 12:54:22 35.4944 -78.6025 31° Northeast 385 443 32,900  Level Washington Center
Wed 12:55:19 35.5942 -78.5319 30° Northeast 377 434 32,900  Level Washington Center
Wed 12:56:20 35.6939 -78.4642 29° Northeast 385 443 32,900  Level Washington Center
Wed 12:57:21 35.7831 -78.4008 30° Northeast 380 437 32,900  Level Washington Center
Wed 12:58:22 35.8700 -78.3347 32° Northeast 380 437 32,900  Level Washington Center
Wed 12:59:20 35.9633 -78.2711 29° Northeast 380 437 32,900  Level Washington Center
Wed 13:00:21 36.0547 -78.2022 31° Northeast 375 432 32,900  Level Washington Center
Wed 13:01:22 36.1458 -78.1383 30° Northeast 375 432 32,900  Level Washington Center
Wed 13:02:22 36.2347 -78.0717 31° Northeast 375 432 32,900  Level Washington Center
Wed 13:03:21 36.3278 -78.0050 30° Northeast 375 432 32,900  Level Washington Center
Wed 13:04:20 36.4189 -77.9383 30° Northeast 375 432 32,900  Level Washington Center
Wed 13:05:21 36.5081 -77.8661 33° Northeast 380 437 32,900 -50 Level Washington Center
Wed 13:06:21 36.5989 -77.8014 30° Northeast 380 437 32,800 -550 Descending Washington Center
Wed 13:07:21 36.6919 -77.7314 31° Northeast 380 437 31,800 -992 Descending Washington Center
Wed 13:08:22 36.7892 -77.6617 30° Northeast 385 443 30,800 -992 Descending Washington Center
Wed 13:09:22 36.8864 -77.5889 31° Northeast 391 450 29,800 -1,017 Descending Washington Center
Wed 13:10:20 36.9814 -77.5186 31° Northeast 396 456 28,800 -1,008 Descending Washington Center
Wed 13:11:21 37.0806 -77.4428 31° Northeast 403 464 27,800 -934 Descending Washington Center
Wed 13:12:22 37.1756 -77.3722 31° Northeast 403 464 26,900 -403 Descending Washington Center
Wed 13:13:20 37.2664 -77.3039 31° Northeast 403 464 27,000 -51 Climbing Washington Center
Wed 13:14:20 37.3569 -77.2353 31° Northeast 387 445 26,800 -595 Descending Washington Center
Wed 13:15:21 37.4497 -77.1667 30° Northeast 382 440 25,800 -984 Descending Washington Center
Wed 13:16:22 37.5403 -77.0953 32° Northeast 388 447 24,800 -1,008 Descending Washington Center
Wed 13:17:20 37.6308 -77.0261 31° Northeast 383 441 23,800 -763 Descending Washington Center
Wed 13:18:20 37.7192 -76.9594 31° Northeast 378 435 23,300 -397 Descending Washington Center
Wed 13:19:21 37.8053 -76.8928 31° Northeast 372 428 23,000 -149 Descending Washington Center
Wed 13:20:21 37.8917 -76.8258 31° Northeast 366 421 23,000  Level Washington Center
Wed 13:21:20 37.9778 -76.7589 31° Northeast 366 421 23,000  Level Washington Center
Wed 13:22:20 38.0617 -76.6942 31° Northeast 361 415 23,000 -50 Level Washington Center
Wed 13:23:20 38.1356 -76.6133 41° Northeast 356 410 22,900 -793 Descending Washington Center
Wed 13:24:21 38.2008 -76.5192 49° Northeast 351 404 21,400 -1,736 Descending Washington Center
Wed 13:25:21 38.2661 -76.4275 48° Northeast 346 398 19,400 -1,636 Descending Washington Center
Wed 13:26:22 38.3417 -76.3542 37° Northeast 341 392 18,100 -1,210 Descending Washington Center
Wed 13:27:20 38.4214 -76.2833 35° Northeast 336 387 17,000 -1,169 Descending Washington Center
Wed 13:28:20 38.4989 -76.2072 38° Northeast 341 392 15,800 -1,190 Descending Washington Center
Wed 13:29:21 38.5744 -76.1361 36° Northeast 341 392 14,600 -1,279 Descending Washington Center
Wed 13:30:22 38.6517 -76.0675 35° Northeast 336 387 13,200 -800 Descending Washington Center
Wed 13:31:21 38.7231 -75.9989 37° Northeast 326 375 13,000 -151 Descending Washington Center
Wed 13:32:21 38.7961 -75.9325 35° Northeast 326 375 12,900 -298 Descending Washington Center
Wed 13:33:22 38.8672 -75.8636 37° Northeast 326 375 12,400 -454 Descending Washington Center
Wed 13:34:20 38.9403 -75.7944 36° Northeast 321 369 12,000 -203 Descending Washington Center
Wed 13:35:20 39.0111 -75.7253 37° Northeast 321 369 12,000 -148 Level Washington Center
Wed 13:36:22 39.0842 -75.6583 35° Northeast 321 369 11,700 -388 Descending Washington Center
Wed 13:38:10 39.2167 -75.5333 36° Northeast 306 352 10,900 -296 Descending Philadelphia TRACON
Wed 13:39:04 39.3000 -75.5167 North 299 344 10,900  Level Philadelphia TRACON
Wed 13:40:04 39.3667 -75.5000 11° North 297 342 10,900  Level Philadelphia TRACON
Wed 13:41:10 39.4667 -75.4667 14° North 296 341 10,900  Level Philadelphia TRACON
Wed 13:42:10 39.5333 -75.4333 21° North 296 341 10,900 -105 Level Philadelphia TRACON
Wed 13:43:04 39.6000 -75.3833 30° Northeast 308 354 10,700 -500 Descending Philadelphia TRACON
Wed 13:44:10 39.6667 -75.3000 44° Northeast 316 364 9,900 -762 Descending Philadelphia TRACON
Wed 13:45:10 39.7333 -75.2167 44° Northeast 306 352 9,100 -500 Descending Philadelphia TRACON
Wed 13:46:10 39.7833 -75.1333 52° Northeast 297 342 8,900 -105 Descending Philadelphia TRACON
Wed 13:47:04 39.8167 -75.0500 62° Northeast 314 361 8,900 -263 Level Philadelphia TRACON
Wed 13:48:04 39.8667 -74.9500 57° Northeast 304 350 8,400 -1,000 Descending Philadelphia TRACON
Wed 13:49:04 39.9167 -74.8667 52° Northeast 294 338 6,900 -1,500 Descending Philadelphia TRACON
Wed 13:50:04 39.9833 -74.8167 30° Northeast 296 341 5,400 -1,650 Descending Philadelphia TRACON
Wed 13:51:04 40.0667 -74.8167 360° North 296 341 3,600 -1,240 Descending Philadelphia TRACON
Wed 13:52:05 40.1333 -74.8667 330° Northwest 244 281 2,900 -694 Descending Philadelphia TRACON
Wed 13:53:05 40.1333 -74.9333 270° West 165 190 2,200 -1,000 Descending Philadelphia TRACON
Wed 13:54:05 40.1167 -74.9667 237° Southwest 120 138 900 -1,300 Descending Philadelphia TRACON
Wed 13:56:00 40.0819 -75.0106 270° West  Level Estimated

Login

Don't have an account? Register now (free) for customized features, flight alerts, and more!